Logan, New Mexico
Current Conditions -  °F | °C
As of 5:53 PM on Sunday 23 Nov 2014 (Local Time) from KTCC Reporting Station
NA  
Wind Chill: 28°   Ceiling: NA
Heat Index: 37°   Visibility: 10mi
Dew Point: 33°   Wind: 14mph
Humidity: 86%   Direction: 270°W
Pressure: 29.89"   Gusts: NA
Location:  35.37°N, 103.41°W
Report Text: KTCC 240053Z AUTO 27012KT 10SM 03/01 A2989 RMK AO2 SLP112 T00280006
Loading
Personal Weather Stations






























Interactive Weather Map New forecast layout! Learn more

10-Day Weather Forecast

Advertisements
Track Severe Weather on mobile